Terminal Aerodrome Forecast
Issued by NWS Wichita, KS

Home | Current Version | Previous Version | Graphics & Text | Print | Product List | Glossary On
Versions: 1 2 3 4 5 6 7 8 9 10 11 12 13 14 15
002
FTUS43 KICT 231720
TAFICT
TAF
KICT 231720Z 2318/2418 34015G22KT P6SM SCT050
     FM232000 33012G22KT P6SM VCSH BKN060
     FM240100 34008KT P6SM BKN045
     FM240200 34007KT P6SM SCT120=

USA.gov is the U.S. government's official web portal to all federal, state and local government web resources and services.